createdAt,value
2017-10-17T00:00:16.852Z,23.15
2017-10-17T00:02:45.278Z,25.48
2017-10-17T00:05:13.722Z,31.45
2017-10-17T00:07:42.939Z,17.85
2017-10-17T00:10:11.366Z,20.55
2017-10-17T00:12:39.748Z,18.15
2017-10-17T00:15:08.238Z,22.80
2017-10-17T00:17:36.687Z,19.87
2017-10-17T00:20:05.100Z,32.20
2017-10-17T00:22:33.590Z,22.92
2017-10-17T00:25:03.524Z,19.52
2017-10-17T00:27:31.948Z,28.73
2017-10-17T00:30:00.444Z,26.87
2017-10-17T00:32:36.790Z,23.12
2017-10-17T00:35:10.988Z,19.10
2017-10-17T00:37:39.435Z,30.73
2017-10-17T00:40:08.600Z,18.00
2017-10-17T00:42:37.145Z,30.60
2017-10-17T00:45:05.590Z,27.40
2017-10-17T00:47:34.887Z,21.50
2017-10-17T00:50:04.166Z,17.10
2017-10-17T00:52:32.638Z,14.48
2017-10-17T00:55:01.086Z,12.00
2017-10-17T00:57:29.748Z,13.80
2017-10-17T00:59:58.149Z,12.40
2017-10-17T01:02:26.583Z,9.80
2017-10-17T01:04:55.048Z,11.82
2017-10-17T01:07:23.459Z,12.07
2017-10-17T01:09:52.607Z,26.02
2017-10-17T01:12:21.034Z,16.73
2017-10-17T01:14:51.287Z,17.83
2017-10-17T01:17:19.705Z,17.70
2017-10-17T01:19:48.134Z,28.90
2017-10-17T01:22:16.536Z,10.57
2017-10-17T01:24:44.982Z,15.90
2017-10-17T01:27:13.447Z,18.65
2017-10-17T01:29:42.628Z,17.58
2017-10-17T01:32:11.131Z,14.50
2017-10-17T01:34:42.074Z,20.17
2017-10-17T01:37:11.276Z,12.35
2017-10-17T01:39:43.148Z,10.70
2017-10-17T01:42:17.884Z,19.05
2017-10-17T01:44:57.968Z,10.07
2017-10-17T01:47:42.145Z,12.90
2017-10-17T01:50:22.044Z,9.43
2017-10-17T01:52:50.444Z,14.05
2017-10-17T01:55:18.845Z,8.88
2017-10-17T02:00:43.624Z,14.15
2017-10-17T02:03:12.042Z,14.07
2017-10-17T02:05:40.475Z,17.92
2017-10-17T02:08:19.648Z,11.68
2017-10-17T02:10:56.691Z,9.90
2017-10-17T02:13:25.131Z,26.87
2017-10-17T02:15:54.286Z,19.40
2017-10-17T02:18:34.235Z,13.93
2017-10-17T02:21:09.414Z,19.37
2017-10-17T02:23:37.859Z,10.55
2017-10-17T02:26:23.786Z,11.02
2017-10-17T02:29:15.619Z,8.05
2017-10-17T02:31:44.758Z,14.15
2017-10-17T02:34:23.958Z,9.77
2017-10-17T02:36:52.403Z,9.88
2017-10-17T02:39:20.788Z,10.40
2017-10-17T02:41:49.990Z,16.37
2017-10-17T02:44:19.131Z,21.17
2017-10-17T02:46:49.411Z,18.05
2017-10-17T02:52:27.006Z,8.90
2017-10-17T02:54:55.431Z,9.30
2017-10-17T02:57:23.877Z,11.30
2017-10-17T02:59:56.214Z,26.42
2017-10-17T03:02:24.607Z,24.30
2017-10-17T03:04:53.059Z,19.05
2017-10-17T03:07:21.471Z,11.45
2017-10-17T03:09:49.867Z,19.48
2017-10-17T03:12:19.043Z,13.20
2017-10-17T03:14:52.135Z,19.10
2017-10-17T03:17:20.675Z,14.68
2017-10-17T03:19:49.133Z,15.95
2017-10-17T03:22:17.652Z,12.15
2017-10-17T03:25:09.606Z,15.70
2017-10-17T03:27:38.834Z,14.35
2017-10-17T03:30:08.004Z,15.10
2017-10-17T03:32:36.473Z,14.85
2017-10-17T03:35:15.275Z,11.10
2017-10-17T03:38:14.086Z,11.68
2017-10-17T03:40:51.188Z,14.35
2017-10-17T03:43:36.789Z,9.88
2017-10-17T03:46:05.978Z,12.43
2017-10-17T03:48:35.459Z,24.05
2017-10-17T03:51:14.482Z,16.17
2017-10-17T03:53:48.429Z,20.77
2017-10-17T03:56:24.980Z,24.48
2017-10-17T03:58:54.952Z,37.95
2017-10-17T04:01:28.717Z,16.55
2017-10-17T04:04:05.988Z,17.67
2017-10-17T04:06:44.310Z,15.85
2017-10-17T04:09:13.995Z,12.93
2017-10-17T04:11:42.386Z,10.75
2017-10-17T04:14:17.874Z,14.90
2017-10-17T04:16:56.229Z,9.95
2017-10-17T04:19:44.521Z,12.05
2017-10-17T04:22:31.185Z,9.25
2017-10-17T04:28:41.983Z,7.68
2017-10-17T04:34:40.588Z,6.78
2017-10-17T04:40:29.922Z,7.35
2017-10-17T04:43:19.006Z,7.90
2017-10-17T04:45:55.959Z,6.28
2017-10-17T04:51:47.034Z,7.43
2017-10-17T04:54:31.988Z,12.90
2017-10-17T04:57:02.410Z,12.07
2017-10-17T04:59:53.374Z,8.00
2017-10-17T05:02:27.775Z,11.35
2017-10-17T05:05:05.645Z,7.10
2017-10-17T05:07:44.643Z,9.40
2017-10-17T05:10:32.014Z,9.40
2017-10-17T05:13:43.582Z,8.98
2017-10-17T05:16:32.069Z,7.10
2017-10-17T05:25:09.862Z,9.23
2017-10-17T05:30:53.839Z,9.43
2017-10-17T05:33:35.709Z,7.80
2017-10-17T05:39:10.350Z,15.00
2017-10-17T05:41:39.364Z,12.35
2017-10-17T05:44:14.828Z,7.30
2017-10-17T05:46:44.002Z,13.70
2017-10-17T05:49:25.582Z,10.75
2017-10-17T05:51:54.548Z,8.30
2017-10-17T05:54:22.947Z,20.77
2017-10-17T05:56:51.854Z,12.30
2017-10-17T05:59:20.254Z,11.35
2017-10-17T06:01:49.791Z,8.20
2017-10-17T06:04:19.607Z,10.73
2017-10-17T06:06:47.999Z,9.85
2017-10-17T06:09:16.374Z,8.98
2017-10-17T06:11:44.799Z,10.25
2017-10-17T06:14:13.178Z,10.52
2017-10-17T06:16:41.553Z,13.68
2017-10-17T06:19:09.976Z,12.02
2017-10-17T06:21:39.111Z,8.30
2017-10-17T06:24:07.487Z,7.12
2017-10-17T06:26:36.163Z,10.90
2017-10-17T06:29:04.530Z,9.82
2017-10-17T06:31:32.906Z,6.80
2017-10-17T06:34:01.313Z,8.32
2017-10-17T06:36:29.691Z,9.77
2017-10-17T06:38:58.285Z,9.63
2017-10-17T06:41:26.703Z,12.93
2017-10-17T06:43:55.854Z,12.07
2017-10-17T06:46:24.233Z,49.03
2017-10-17T06:48:52.659Z,15.23
2017-10-17T06:51:21.814Z,11.00
2017-10-17T06:53:50.215Z,19.53
2017-10-17T06:56:18.641Z,10.60
2017-10-17T06:58:47.031Z,12.93
2017-10-17T07:01:15.421Z,7.33
2017-10-17T07:03:43.894Z,14.70
2017-10-17T07:06:12.295Z,12.53
2017-10-17T07:08:40.691Z,16.90
2017-10-17T07:11:09.858Z,8.77
2017-10-17T07:13:38.266Z,9.80
2017-10-17T07:16:06.648Z,13.30
2017-10-17T07:18:35.072Z,19.00
2017-10-17T07:21:03.483Z,8.10
2017-10-17T07:23:31.895Z,16.50
2017-10-17T07:26:00.276Z,10.50
2017-10-17T07:28:29.473Z,22.60
2017-10-17T07:30:57.926Z,18.47
2017-10-17T07:33:26.371Z,18.60
2017-10-17T07:35:54.748Z,13.40
2017-10-17T07:38:23.140Z,13.57
2017-10-17T07:40:51.545Z,13.10
2017-10-17T07:43:19.950Z,10.10
2017-10-17T07:45:49.139Z,22.20
2017-10-17T07:48:17.538Z,16.03
2017-10-17T07:50:46.736Z,20.33
2017-10-17T07:53:15.907Z,12.97
2017-10-17T07:55:45.056Z,14.70
2017-10-17T07:58:13.484Z,14.20
2017-10-17T08:00:41.944Z,12.20
2017-10-17T08:03:10.604Z,8.17
2017-10-17T08:05:39.015Z,11.93
2017-10-17T08:08:07.409Z,16.47
2017-10-17T08:10:35.816Z,18.17
2017-10-17T08:13:04.223Z,14.50
2017-10-17T08:15:32.833Z,21.33
2017-10-17T08:18:01.302Z,18.20
2017-10-17T08:20:30.494Z,12.80
2017-10-17T08:22:58.900Z,7.87
2017-10-17T08:25:27.275Z,9.10
2017-10-17T08:27:55.784Z,12.73
2017-10-17T08:30:24.923Z,25.73
2017-10-17T08:32:53.299Z,12.70
2017-10-17T08:35:21.706Z,14.77
2017-10-17T08:37:50.096Z,11.93
2017-10-17T08:40:20.040Z,13.63
2017-10-17T08:42:48.428Z,21.27
2017-10-17T08:45:16.808Z,14.53
2017-10-17T08:47:45.216Z,13.53
2017-10-17T08:50:14.144Z,15.63
2017-10-17T08:52:42.611Z,9.47
2017-10-17T08:55:11.000Z,16.83
2017-10-17T08:57:39.384Z,10.60
2017-10-17T09:00:07.784Z,12.50
2017-10-17T09:02:36.931Z,14.57
2017-10-17T09:05:05.343Z,15.67
2017-10-17T09:07:34.497Z,17.03
2017-10-17T09:10:02.885Z,19.20
2017-10-17T09:12:31.294Z,20.20
2017-10-17T09:14:59.666Z,11.60
2017-10-17T09:17:28.118Z,11.37
2017-10-17T09:19:56.579Z,10.07
2017-10-17T09:22:24.965Z,12.90
2017-10-17T09:24:53.383Z,14.93
2017-10-17T09:27:21.752Z,16.53
2017-10-17T09:29:50.155Z,16.60
2017-10-17T09:32:19.307Z,14.70
2017-10-17T09:34:47.740Z,8.53
2017-10-17T09:37:16.908Z,13.63
2017-10-17T09:39:45.284Z,10.57
2017-10-17T09:42:14.446Z,11.40
2017-10-17T09:44:42.837Z,12.87
2017-10-17T09:47:11.240Z,9.30
2017-10-17T09:49:39.639Z,8.80
2017-10-17T09:52:08.784Z,11.00
2017-10-17T09:54:37.368Z,21.03
2017-10-17T09:57:05.759Z,13.40
2017-10-17T09:59:34.139Z,12.87
2017-10-17T10:02:02.541Z,24.60
2017-10-17T10:04:30.939Z,16.90
2017-10-17T10:07:00.134Z,13.27
2017-10-17T10:09:29.285Z,10.87
2017-10-17T10:11:57.696Z,15.50
2017-10-17T10:14:26.139Z,12.73
2017-10-17T10:16:54.660Z,12.50
2017-10-17T10:19:23.040Z,19.50
2017-10-17T10:21:52.187Z,14.93
2017-10-17T10:24:20.610Z,15.00
2017-10-17T10:26:49.779Z,12.33
2017-10-17T10:29:18.186Z,16.53
2017-10-17T10:31:47.724Z,11.67
2017-10-17T10:34:16.117Z,11.80
2017-10-17T10:36:44.507Z,12.17
2017-10-17T10:39:12.912Z,16.23
2017-10-17T10:41:41.323Z,17.30
2017-10-17T10:44:10.666Z,7.90
2017-10-17T10:46:39.041Z,12.90
2017-10-17T10:49:07.426Z,12.77
2017-10-17T10:51:35.831Z,13.57
2017-10-17T10:54:04.206Z,18.37
2017-10-17T10:56:32.620Z,10.80
2017-10-17T10:59:01.766Z,9.80
2017-10-17T11:01:30.182Z,12.23
2017-10-17T11:03:59.346Z,12.00
2017-10-17T11:06:27.739Z,15.07
2017-10-17T11:08:56.251Z,11.73
2017-10-17T11:11:25.391Z,20.47
2017-10-17T11:13:53.794Z,15.63
2017-10-17T11:16:22.180Z,10.47
2017-10-17T11:18:50.582Z,8.10
2017-10-17T11:21:19.728Z,11.57
2017-10-17T11:23:48.206Z,9.87
2017-10-17T11:26:16.592Z,5.60
2017-10-17T11:28:45.035Z,5.23
2017-10-17T11:31:13.436Z,18.77
2017-10-17T11:33:41.883Z,9.37
2017-10-17T11:36:11.672Z,20.37
2017-10-17T11:38:40.103Z,8.77
2017-10-17T11:41:26.547Z,8.20
2017-10-17T11:43:55.305Z,8.90
2017-10-17T11:46:23.784Z,11.97
2017-10-17T11:48:52.166Z,12.53
2017-10-17T11:51:20.568Z,11.23
2017-10-17T11:53:48.959Z,12.70
2017-10-17T11:56:17.370Z,11.33
2017-10-17T11:58:45.754Z,10.73
2017-10-17T12:01:14.367Z,10.57
2017-10-17T12:03:42.761Z,25.73
2017-10-17T12:06:11.251Z,24.63
2017-10-17T12:08:40.422Z,12.80
2017-10-17T12:11:08.807Z,13.77
2017-10-17T12:13:37.799Z,12.63
2017-10-17T12:16:06.187Z,5.83
2017-10-17T12:18:34.764Z,12.43
2017-10-17T12:21:03.139Z,17.00
2017-10-17T12:23:31.519Z,9.33
2017-10-17T12:25:59.928Z,12.73
2017-10-17T12:28:29.073Z,9.03
2017-10-17T12:30:57.476Z,13.07
2017-10-17T12:33:25.852Z,8.57
2017-10-17T12:35:54.256Z,11.07
2017-10-17T12:38:22.641Z,12.03
2017-10-17T12:40:51.878Z,11.40
2017-10-17T12:43:20.280Z,12.13
2017-10-17T12:45:48.669Z,9.57
2017-10-17T12:48:17.070Z,11.80
2017-10-17T12:50:45.461Z,9.90
2017-10-17T12:53:14.688Z,11.53
2017-10-17T12:55:43.081Z,22.23
2017-10-17T12:58:11.467Z,15.33
2017-10-17T13:00:39.893Z,15.67
2017-10-17T13:03:09.043Z,11.47
2017-10-17T13:05:37.544Z,12.50
2017-10-17T13:08:05.920Z,8.87
2017-10-17T13:10:34.483Z,6.13
2017-10-17T13:13:02.867Z,10.17
2017-10-17T13:15:31.324Z,13.67
2017-10-17T13:17:59.742Z,16.53
2017-10-17T13:20:28.180Z,12.30
2017-10-17T13:22:56.586Z,17.80
2017-10-17T13:25:24.956Z,8.57
2017-10-17T13:27:53.344Z,13.13
2017-10-17T13:30:21.735Z,9.07
2017-10-17T13:32:50.109Z,18.03
2017-10-17T13:35:18.581Z,9.10
2017-10-17T13:37:46.960Z,21.33
2017-10-17T13:40:15.339Z,12.77
2017-10-17T13:42:43.736Z,8.07
2017-10-17T13:45:12.916Z,17.97
2017-10-17T13:47:41.335Z,14.00
2017-10-17T13:50:10.482Z,17.77
2017-10-17T13:52:38.891Z,12.83
2017-10-17T13:55:07.282Z,15.80
2017-10-17T13:57:36.430Z,27.40
2017-10-17T14:00:04.844Z,18.77
2017-10-17T14:02:33.291Z,21.93
2017-10-17T14:05:01.867Z,9.63
2017-10-17T14:07:30.252Z,10.37
2017-10-17T14:09:58.632Z,10.83
2017-10-17T14:12:27.030Z,22.60
2017-10-17T14:14:55.474Z,19.93
2017-10-17T14:17:23.883Z,14.03
2017-10-17T14:19:52.276Z,25.33
2017-10-17T14:22:20.695Z,12.00
2017-10-17T14:24:49.099Z,15.53
2017-10-17T14:27:17.684Z,17.73
2017-10-17T14:29:46.077Z,20.77
2017-10-17T14:32:14.460Z,15.30
2017-10-17T14:34:42.863Z,23.20
2017-10-17T14:37:12.014Z,24.40
2017-10-17T14:39:40.607Z,18.30
2017-10-17T14:42:08.996Z,25.07
2017-10-17T14:44:37.381Z,16.63
2017-10-17T14:47:05.783Z,21.23
2017-10-17T14:49:34.933Z,13.93
2017-10-17T14:52:03.359Z,17.37
2017-10-17T14:54:32.509Z,15.63
2017-10-17T14:57:00.875Z,16.43
2017-10-17T14:59:29.365Z,28.53
2017-10-17T15:01:57.748Z,18.13
2017-10-17T15:04:26.307Z,33.53
2017-10-17T15:06:54.695Z,22.83
2017-10-17T15:09:23.097Z,19.70
2017-10-17T15:11:51.523Z,22.00
2017-10-17T15:14:20.680Z,23.03
2017-10-17T15:16:49.105Z,19.43
2017-10-17T15:19:18.264Z,19.43
2017-10-17T15:21:46.774Z,19.83
2017-10-17T15:24:15.923Z,15.27
2017-10-17T15:26:44.317Z,24.50
2017-10-17T15:29:12.738Z,24.63
2017-10-17T15:31:41.131Z,28.83
2017-10-17T15:34:09.724Z,39.63
2017-10-17T15:36:38.106Z,26.33
2017-10-17T15:39:06.501Z,22.80
2017-10-17T15:41:34.919Z,32.67
2017-10-17T15:44:04.209Z,30.70
2017-10-17T15:46:32.869Z,25.83
2017-10-17T15:49:01.309Z,32.57
2017-10-17T15:51:29.683Z,22.70
2017-10-17T15:53:58.088Z,33.00
2017-10-17T15:56:26.524Z,30.40
2017-10-17T15:58:56.087Z,41.23
2017-10-17T16:01:24.472Z,24.10
2017-10-17T16:03:52.859Z,29.03
2017-10-17T16:06:21.265Z,30.67
2017-10-17T16:08:50.423Z,24.00
2017-10-17T16:11:19.203Z,19.97
2017-10-17T16:13:47.596Z,20.00
2017-10-17T16:16:15.984Z,46.80
2017-10-17T16:18:44.390Z,19.13
2017-10-17T16:21:13.547Z,23.40
2017-10-17T16:23:42.248Z,16.47
2017-10-17T16:26:10.632Z,25.53
2017-10-17T16:28:39.783Z,26.37
2017-10-17T16:31:08.207Z,28.60
2017-10-17T16:33:36.595Z,18.63
2017-10-17T16:36:06.059Z,17.40
2017-10-17T16:38:34.439Z,25.73
2017-10-17T16:41:02.840Z,27.55
2017-10-17T16:43:31.247Z,18.77
2017-10-17T16:45:59.641Z,27.27
2017-10-17T16:48:28.356Z,21.48
2017-10-17T16:50:56.762Z,20.90
2017-10-17T16:53:25.145Z,16.77
2017-10-17T16:55:53.573Z,23.38
2017-10-17T16:58:21.967Z,21.42
2017-10-17T17:00:50.559Z,28.38
2017-10-17T17:03:18.942Z,22.08
2017-10-17T17:05:47.334Z,16.45
2017-10-17T17:08:15.751Z,26.00
2017-10-17T17:10:44.152Z,22.92
2017-10-17T17:13:12.613Z,25.75
2017-10-17T17:15:40.999Z,28.15
2017-10-17T17:18:09.391Z,23.70
2017-10-17T17:20:37.824Z,30.48
2017-10-17T17:23:07.001Z,31.65
2017-10-17T17:25:35.611Z,33.83
2017-10-17T17:28:04.770Z,34.83
2017-10-17T17:30:33.155Z,34.38
2017-10-17T17:33:01.600Z,26.83
2017-10-17T17:35:30.006Z,28.52
2017-10-17T17:37:58.577Z,26.25
2017-10-17T17:40:26.970Z,19.30
2017-10-17T17:42:55.357Z,27.98
2017-10-17T17:45:25.122Z,37.33
2017-10-17T17:47:55.282Z,28.67
2017-10-17T17:50:24.985Z,25.73
2017-10-17T17:52:53.625Z,28.05
2017-10-17T17:55:22.023Z,27.87
2017-10-17T17:57:50.432Z,39.78
2017-10-17T18:00:18.821Z,32.03
2017-10-17T18:02:47.256Z,28.98
2017-10-17T18:05:15.803Z,30.17
2017-10-17T18:07:44.201Z,18.95
2017-10-17T18:10:13.417Z,25.05
2017-10-17T18:12:41.800Z,23.65
2017-10-17T18:15:10.420Z,18.80
2017-10-17T18:17:38.813Z,21.60
2017-10-17T18:20:07.207Z,25.25
2017-10-17T18:22:36.566Z,40.50
2017-10-17T18:25:05.215Z,31.10
2017-10-17T18:27:33.853Z,34.50
2017-10-17T18:30:02.284Z,25.35
2017-10-17T18:32:30.671Z,25.95
2017-10-17T18:34:59.087Z,27.92
2017-10-17T18:37:27.476Z,28.05
2017-10-17T18:39:56.875Z,29.58
2017-10-17T18:42:25.277Z,28.35
2017-10-17T18:44:53.890Z,31.35
2017-10-17T18:47:22.363Z,29.05
2017-10-17T18:49:50.886Z,28.25
2017-10-17T18:52:19.564Z,37.83
2017-10-17T18:54:47.959Z,23.48
2017-10-17T18:57:16.440Z,25.35
2017-10-17T18:59:45.210Z,27.48
2017-10-17T19:02:13.743Z,21.92
2017-10-17T19:04:43.097Z,33.40
2017-10-17T19:07:11.491Z,22.35
2017-10-17T19:09:40.009Z,29.75
2017-10-17T19:12:08.504Z,21.20
2017-10-17T19:14:37.133Z,17.02
2017-10-17T19:17:06.584Z,19.60
2017-10-17T19:19:34.984Z,19.85
2017-10-17T19:22:03.367Z,25.10
2017-10-17T19:24:31.782Z,27.37
2017-10-17T19:27:00.191Z,20.20
2017-10-17T19:29:29.504Z,33.60
2017-10-17T19:31:57.907Z,32.08
2017-10-17T19:34:27.083Z,41.05
2017-10-17T19:36:55.498Z,38.40
2017-10-17T19:39:23.932Z,31.02
2017-10-17T19:41:53.174Z,32.67
2017-10-17T19:44:21.584Z,21.65
2017-10-17T19:46:50.863Z,35.42
2017-10-17T19:49:19.280Z,24.60
2017-10-17T19:51:48.464Z,41.75
2017-10-17T19:54:17.070Z,49.05
2017-10-17T19:56:45.936Z,24.15
2017-10-17T19:59:14.433Z,23.20
2017-10-17T20:01:44.281Z,25.95
2017-10-17T20:04:13.638Z,24.15
2017-10-17T20:06:42.203Z,16.27
2017-10-17T20:09:11.028Z,26.05
2017-10-17T20:11:39.784Z,27.95
2017-10-17T20:14:08.232Z,45.58
2017-10-17T20:16:37.232Z,46.03
2017-10-17T20:19:06.496Z,21.80
2017-10-17T20:21:35.555Z,20.00
2017-10-17T20:24:04.847Z,32.78
2017-10-17T20:26:34.124Z,30.08
2017-10-17T20:29:02.535Z,28.95
2017-10-17T20:31:31.101Z,25.77
2017-10-17T20:33:59.560Z,28.40
2017-10-17T20:36:28.827Z,22.45
2017-10-17T20:38:57.341Z,19.62
2017-10-17T20:41:25.782Z,23.52
2017-10-17T20:43:54.403Z,18.52
2017-10-17T20:46:23.603Z,22.48
2017-10-17T20:48:52.075Z,22.27
2017-10-17T20:51:20.478Z,26.00
2017-10-17T20:53:48.942Z,26.25
2017-10-17T20:56:17.830Z,43.45
2017-10-17T20:58:46.211Z,20.23
2017-10-17T21:01:14.599Z,20.83
2017-10-17T21:03:43.024Z,22.05
2017-10-17T21:06:12.170Z,22.50
2017-10-17T21:08:40.849Z,22.45
2017-10-17T21:11:09.231Z,29.50
2017-10-17T21:13:37.630Z,23.33
2017-10-17T21:16:06.037Z,28.98
2017-10-17T21:18:35.183Z,14.20
2017-10-17T21:21:03.867Z,17.92
2017-10-17T21:23:33.615Z,20.10
2017-10-17T21:26:02.006Z,19.40
2017-10-17T21:28:31.174Z,26.15
2017-10-17T21:30:59.556Z,28.05
2017-10-17T21:33:28.008Z,16.05
2017-10-17T21:35:56.395Z,38.38
2017-10-17T21:38:24.775Z,26.77
2017-10-17T21:40:53.204Z,26.90
2017-10-17T21:43:21.576Z,13.27
2017-10-17T21:45:50.762Z,16.27
2017-10-17T21:48:19.154Z,30.85
2017-10-17T21:50:48.402Z,19.42
2017-10-17T21:53:16.809Z,33.45
2017-10-17T21:55:45.187Z,24.63
2017-10-17T21:58:13.753Z,16.33
2017-10-17T22:01:00.022Z,14.57
2017-10-17T22:03:28.628Z,28.38
2017-10-17T22:05:57.012Z,25.98
2017-10-17T22:08:25.395Z,21.48
2017-10-17T22:10:53.786Z,24.37
2017-10-17T22:13:22.170Z,18.95
2017-10-17T22:15:50.553Z,15.57
2017-10-17T22:18:19.077Z,20.05
2017-10-17T22:20:47.458Z,22.50
2017-10-17T22:23:15.841Z,19.30
2017-10-17T22:25:44.247Z,11.98
2017-10-17T22:28:12.622Z,17.67
2017-10-17T22:30:41.182Z,30.65
2017-10-17T22:33:09.561Z,13.10
2017-10-17T22:35:37.940Z,15.20
2017-10-17T22:38:06.341Z,21.23
2017-10-17T22:40:35.424Z,14.68
2017-10-17T22:43:03.825Z,13.45
2017-10-17T22:45:32.228Z,17.00
2017-10-17T22:48:01.378Z,15.60
2017-10-17T22:50:29.776Z,10.80
2017-10-17T22:52:58.151Z,14.48
2017-10-17T22:55:26.568Z,21.77
2017-10-17T22:57:55.713Z,13.68
2017-10-17T23:00:24.098Z,14.27
2017-10-17T23:02:52.493Z,10.15
2017-10-17T23:05:20.863Z,19.23
2017-10-17T23:07:49.291Z,23.95
2017-10-17T23:10:17.683Z,19.80
2017-10-17T23:12:46.059Z,21.67
2017-10-17T23:15:14.458Z,15.45
2017-10-17T23:18:00.728Z,19.20
2017-10-17T23:20:40.532Z,12.75
2017-10-17T23:23:08.908Z,25.83
2017-10-17T23:25:37.568Z,37.08
2017-10-17T23:28:05.960Z,20.00
2017-10-17T23:30:34.352Z,28.95
2017-10-17T23:33:02.748Z,8.00
2017-10-17T23:35:31.132Z,13.73
2017-10-17T23:38:00.481Z,12.13
2017-10-17T23:40:28.864Z,11.12
2017-10-17T23:42:57.273Z,13.43
2017-10-17T23:45:25.679Z,11.20
2017-10-17T23:47:54.051Z,12.40
2017-10-17T23:50:23.558Z,14.68
2017-10-17T23:52:52.706Z,14.98
2017-10-17T23:55:21.084Z,19.05
2017-10-17T23:57:49.493Z,16.98
